createdAt,value
2019-04-14T00:01:43.415Z,78.10
2019-04-14T00:04:13.900Z,77.90
2019-04-14T00:06:44.026Z,78.40
2019-04-14T00:09:16.205Z,78.70
2019-04-14T00:11:46.175Z,79.00
2019-04-14T00:14:14.826Z,78.60
2019-04-14T00:16:44.531Z,78.70
2019-04-14T00:19:13.256Z,78.70
2019-04-14T00:21:41.702Z,78.20
2019-04-14T00:24:10.206Z,78.00
2019-04-14T00:26:38.710Z,78.60
2019-04-14T00:29:07.220Z,79.10
2019-04-14T00:31:37.106Z,78.90
2019-04-14T00:34:07.488Z,78.70
2019-04-14T00:36:38.010Z,78.60
2019-04-14T00:39:16.192Z,78.90
2019-04-14T00:41:53.890Z,79.30
2019-04-14T00:44:39.187Z,79.30
2019-04-14T00:47:09.905Z,79.60
2019-04-14T00:49:38.360Z,78.90
2019-04-14T00:52:07.924Z,78.60
2019-04-14T00:54:37.045Z,78.50
2019-04-14T00:57:05.894Z,77.70
2019-04-14T00:59:35.463Z,77.50
2019-04-14T01:02:05.569Z,77.70
2019-04-14T01:04:36.119Z,78.00
2019-04-14T01:07:04.687Z,77.90
2019-04-14T01:09:34.721Z,77.90
2019-04-14T01:12:03.903Z,77.80
2019-04-14T01:14:32.543Z,78.40
2019-04-14T01:17:00.982Z,78.40
2019-04-14T01:19:30.860Z,78.60
2019-04-14T01:21:59.512Z,77.80
2019-04-14T01:24:29.261Z,78.30
2019-04-14T01:26:57.857Z,77.50
2019-04-14T01:29:27.581Z,78.10
2019-04-14T01:31:56.250Z,78.30
2019-04-14T01:34:25.998Z,78.40
2019-04-14T01:36:54.591Z,77.50
2019-04-14T01:39:24.205Z,77.80
2019-04-14T01:41:54.186Z,77.90
2019-04-14T01:44:24.145Z,77.80
2019-04-14T01:46:52.841Z,78.10
2019-04-14T01:49:22.630Z,78.50
2019-04-14T01:52:08.677Z,78.80
2019-04-14T01:54:45.307Z,78.70
2019-04-14T01:57:22.060Z,78.50
2019-04-14T01:59:50.746Z,79.20
2019-04-14T02:02:21.159Z,79.20
2019-04-14T02:04:50.712Z,79.20
2019-04-14T02:07:19.305Z,79.20
2019-04-14T02:09:48.922Z,78.70
2019-04-14T02:12:17.479Z,78.60
2019-04-14T02:14:47.326Z,79.30
2019-04-14T02:17:15.953Z,78.30
2019-04-14T02:19:44.423Z,78.80
2019-04-14T02:22:13.817Z,78.60
2019-04-14T02:24:43.845Z,78.10
2019-04-14T02:27:14.117Z,77.80
2019-04-14T02:29:43.093Z,77.90
2019-04-14T02:35:13.154Z,77.10
2019-04-14T02:40:08.994Z,76.50
2019-04-14T02:42:39.570Z,76.60
2019-04-14T02:45:10.455Z,75.90
2019-04-14T02:47:53.700Z,75.90
2019-04-14T02:50:15.513Z,76.10
2019-04-14T02:52:46.945Z,76.30
2019-04-14T02:57:39.977Z,75.80
2019-04-14T03:00:19.651Z,76.40
2019-04-14T03:05:11.205Z,76.70
2019-04-14T03:10:12.591Z,77.10
2019-04-14T03:12:46.491Z,77.10
2019-04-14T03:15:13.129Z,77.20
2019-04-14T03:18:10.740Z,77.60
2019-04-14T03:23:14.335Z,77.70
2019-04-14T03:25:29.727Z,77.30
2019-04-14T03:28:26.212Z,77.40
2019-04-14T03:34:07.567Z,77.50
2019-04-14T03:37:07.986Z,77.70
2019-04-14T03:41:17.365Z,77.10
2019-04-14T03:43:39.236Z,77.20
2019-04-14T03:48:52.318Z,77.00
2019-04-14T03:53:32.521Z,77.30
2019-04-14T03:55:55.379Z,76.80
2019-04-14T03:58:20.496Z,77.30
2019-04-14T04:00:49.444Z,77.60
2019-04-14T04:03:18.018Z,77.40
2019-04-14T04:05:47.758Z,77.40
2019-04-14T04:08:17.920Z,77.30
2019-04-14T04:10:48.707Z,77.50
2019-04-14T04:13:17.475Z,77.60
2019-04-14T04:15:46.001Z,77.60
2019-04-14T04:18:22.054Z,77.80
2019-04-14T04:20:52.500Z,78.00
2019-04-14T04:23:27.082Z,78.20
2019-04-14T04:26:04.016Z,78.00
2019-04-14T04:28:34.256Z,77.80
2019-04-14T04:31:04.564Z,77.60
2019-04-14T04:33:47.870Z,77.30
2019-04-14T04:36:24.820Z,77.10
2019-04-14T04:39:08.275Z,77.70
2019-04-14T04:41:37.154Z,77.70
2019-04-14T04:44:05.613Z,77.70
2019-04-14T04:46:35.080Z,77.40
2019-04-14T04:49:12.771Z,77.60
2019-04-14T04:51:34.221Z,77.40
2019-04-14T04:54:03.801Z,77.70
2019-04-14T04:56:32.423Z,77.20
2019-04-14T04:59:01.134Z,76.80
2019-04-14T05:01:29.965Z,76.70
2019-04-14T05:03:58.464Z,76.40
2019-04-14T05:06:57.215Z,76.80
2019-04-14T05:09:38.571Z,76.60
2019-04-14T05:12:09.122Z,75.50
2019-04-14T05:14:39.682Z,75.20
2019-04-14T05:17:08.205Z,75.40
2019-04-14T05:19:39.416Z,75.40
2019-04-14T05:22:09.268Z,74.70
2019-04-14T05:24:38.090Z,75.20
2019-04-14T05:27:07.629Z,74.70
2019-04-14T05:29:36.529Z,73.60
2019-04-14T05:32:06.566Z,73.90
2019-04-14T05:34:35.427Z,73.90
2019-04-14T05:37:04.997Z,74.30
2019-04-14T05:39:33.563Z,74.20
2019-04-14T05:42:09.713Z,74.30
2019-04-14T05:44:32.200Z,74.20
2019-04-14T05:47:00.709Z,74.20
2019-04-14T05:49:38.191Z,74.80
2019-04-14T05:51:59.666Z,74.50
2019-04-14T05:54:28.131Z,74.20
2019-04-14T05:56:56.576Z,75.00
2019-04-14T05:59:25.053Z,76.00
2019-04-14T06:01:54.538Z,77.30
2019-04-14T06:04:24.321Z,77.70
2019-04-14T06:06:52.988Z,78.30
2019-04-14T06:09:21.751Z,79.50
2019-04-14T06:11:50.515Z,79.70
2019-04-14T06:14:19.066Z,78.60
2019-04-14T06:16:47.534Z,79.10
2019-04-14T06:19:15.976Z,78.60
2019-04-14T06:21:44.462Z,79.60
2019-04-14T06:24:12.897Z,78.40
2019-04-14T06:26:41.428Z,77.70
2019-04-14T06:29:09.937Z,77.80
2019-04-14T06:31:40.401Z,77.60
2019-04-14T06:34:26.877Z,77.30
2019-04-14T06:37:09.206Z,77.40
2019-04-14T06:39:45.365Z,76.80
2019-04-14T06:42:13.856Z,77.40
2019-04-14T06:44:42.581Z,76.80
2019-04-14T06:47:11.096Z,76.50
2019-04-14T06:49:48.826Z,76.10
2019-04-14T06:52:10.217Z,76.60
2019-04-14T06:54:38.723Z,76.60
2019-04-14T06:57:07.442Z,76.60
2019-04-14T06:59:35.966Z,76.60
2019-04-14T07:02:04.464Z,75.60
2019-04-14T07:04:33.005Z,74.80
2019-04-14T07:07:01.532Z,75.30
2019-04-14T07:09:30.341Z,76.90
2019-04-14T07:11:58.872Z,74.00
2019-04-14T07:14:31.708Z,74.90
2019-04-14T07:16:57.756Z,75.00
2019-04-14T07:19:26.261Z,75.10
2019-04-14T07:21:55.123Z,75.30
2019-04-14T07:24:24.280Z,74.80
2019-04-14T07:26:52.755Z,73.70
2019-04-14T07:29:21.614Z,73.80
2019-04-14T07:31:51.835Z,74.60
2019-04-14T07:34:27.793Z,73.00
2019-04-14T07:37:10.065Z,73.20
2019-04-14T07:39:52.487Z,72.70
2019-04-14T07:42:22.660Z,72.80
2019-04-14T07:45:11.272Z,71.90
2019-04-14T07:47:47.437Z,71.20
2019-04-14T07:50:23.875Z,71.20
2019-04-14T07:53:10.862Z,70.10
2019-04-14T07:55:47.557Z,69.10
2019-04-14T07:58:27.441Z,65.60
2019-04-14T08:00:57.516Z,66.80
2019-04-14T08:03:44.139Z,67.20
2019-04-14T08:06:12.591Z,68.20
2019-04-14T08:08:41.034Z,66.90
2019-04-14T08:11:09.602Z,66.20
2019-04-14T08:13:38.040Z,65.30
2019-04-14T08:16:06.499Z,66.70
2019-04-14T08:18:36.881Z,65.90
2019-04-14T08:21:05.341Z,65.20
2019-04-14T08:23:33.794Z,66.10
2019-04-14T08:26:02.590Z,67.00
2019-04-14T08:28:31.105Z,67.20
2019-04-14T08:30:59.837Z,65.60
2019-04-14T08:33:28.358Z,64.80
2019-04-14T08:35:56.985Z,65.10
2019-04-14T08:38:25.481Z,64.70
2019-04-14T08:40:55.145Z,65.30
2019-04-14T08:43:30.833Z,65.60
2019-04-14T08:46:06.965Z,65.20
2019-04-14T08:48:52.101Z,65.70
2019-04-14T08:51:24.389Z,65.50
2019-04-14T08:54:00.918Z,65.40
2019-04-14T08:56:31.444Z,64.60
2019-04-14T08:59:01.870Z,64.50
2019-04-14T09:01:50.196Z,65.20
2019-04-14T09:04:26.075Z,64.50
2019-04-14T09:07:12.739Z,65.30
2019-04-14T09:09:42.857Z,65.40
2019-04-14T09:12:15.798Z,64.80
2019-04-14T09:14:56.366Z,64.10
2019-04-14T09:17:14.395Z,63.30
2019-04-14T09:19:43.303Z,62.50
2019-04-14T09:22:11.793Z,62.30
2019-04-14T09:24:41.694Z,62.40
2019-04-14T09:27:10.197Z,63.30
2019-04-14T09:29:38.702Z,63.50
2019-04-14T09:32:09.192Z,62.60
2019-04-14T09:34:37.681Z,64.50
2019-04-14T09:37:06.578Z,63.10
2019-04-14T09:39:35.097Z,63.90
2019-04-14T09:42:03.560Z,63.20
2019-04-14T09:44:32.044Z,63.40
2019-04-14T09:47:00.749Z,62.80
2019-04-14T09:49:30.327Z,63.40
2019-04-14T09:51:58.913Z,64.10
2019-04-14T09:54:27.461Z,64.20
2019-04-14T09:56:56.028Z,63.80
2019-04-14T09:59:24.538Z,61.90
2019-04-14T10:01:52.996Z,61.50
2019-04-14T10:04:21.556Z,61.10
2019-04-14T10:06:50.027Z,60.20
2019-04-14T10:09:18.632Z,61.80
2019-04-14T10:11:48.770Z,60.30
2019-04-14T10:14:17.672Z,61.30
2019-04-14T10:16:46.156Z,61.30
2019-04-14T10:19:14.587Z,61.50
2019-04-14T10:21:43.177Z,61.10
2019-04-14T10:24:11.939Z,61.20
2019-04-14T10:26:40.528Z,60.80
2019-04-14T10:29:09.038Z,58.70
2019-04-14T10:31:37.506Z,57.90
2019-04-14T10:34:06.013Z,58.50
2019-04-14T10:36:34.859Z,58.00
2019-04-14T10:39:05.521Z,57.70
2019-04-14T10:41:34.028Z,57.80
2019-04-14T10:44:02.605Z,55.80
2019-04-14T10:46:31.440Z,55.00
2019-04-14T10:48:59.899Z,56.60
2019-04-14T10:51:30.265Z,56.50
2019-04-14T10:53:59.184Z,56.40
2019-04-14T10:56:27.949Z,55.40
2019-04-14T10:58:56.484Z,54.90
2019-04-14T11:01:25.006Z,55.80
2019-04-14T11:03:53.550Z,54.70
2019-04-14T11:06:23.979Z,54.70
2019-04-14T11:08:52.454Z,55.00
2019-04-14T11:11:20.936Z,56.40
2019-04-14T11:13:49.735Z,56.90
2019-04-14T11:16:18.209Z,57.10
2019-04-14T11:18:46.997Z,57.20
2019-04-14T11:21:15.484Z,57.10
2019-04-14T11:23:44.269Z,55.40
2019-04-14T11:26:12.828Z,56.60
2019-04-14T11:28:41.384Z,55.60
2019-04-14T11:31:10.340Z,55.10
2019-04-14T11:33:55.883Z,54.70
2019-04-14T11:36:41.564Z,55.20
2019-04-14T11:39:11.955Z,54.70
2019-04-14T11:41:40.481Z,54.60
2019-04-14T11:44:09.283Z,54.60
2019-04-14T11:46:37.847Z,55.30
2019-04-14T11:49:06.434Z,55.30
2019-04-14T11:51:35.022Z,55.30
2019-04-14T11:54:03.852Z,54.10
2019-04-14T11:56:32.354Z,53.00
2019-04-14T11:59:01.136Z,52.60
2019-04-14T12:01:37.480Z,53.30
2019-04-14T12:04:07.694Z,52.70
2019-04-14T12:06:40.989Z,53.20
2019-04-14T12:09:19.913Z,52.00
2019-04-14T12:11:48.424Z,51.30
2019-04-14T12:14:16.885Z,52.40
2019-04-14T12:16:45.363Z,51.80
2019-04-14T12:19:14.219Z,51.70
2019-04-14T12:21:42.699Z,53.60
2019-04-14T12:24:11.493Z,50.40
2019-04-14T12:26:40.357Z,51.30
2019-04-14T12:29:09.736Z,51.00
2019-04-14T12:31:39.425Z,50.60
2019-04-14T12:34:08.089Z,51.00
2019-04-14T12:36:36.622Z,51.60
2019-04-14T12:39:08.185Z,52.20
2019-04-14T12:41:41.633Z,51.30
2019-04-14T12:44:11.751Z,51.60
2019-04-14T12:46:44.677Z,50.50
2019-04-14T12:49:17.269Z,50.80
2019-04-14T12:51:56.216Z,48.50
2019-04-14T12:54:26.578Z,46.80
2019-04-14T12:56:55.361Z,47.20
2019-04-14T12:59:24.579Z,46.00
2019-04-14T13:02:03.957Z,46.90
2019-04-14T13:04:32.703Z,47.50
2019-04-14T13:07:01.609Z,48.60
2019-04-14T13:09:30.091Z,47.50
2019-04-14T13:11:58.596Z,47.20
2019-04-14T13:14:27.084Z,46.40
2019-04-14T13:16:55.815Z,44.60
2019-04-14T13:19:24.556Z,43.70
2019-04-14T13:21:53.026Z,44.90
2019-04-14T13:24:21.761Z,45.60
2019-04-14T13:26:50.304Z,46.30
2019-04-14T13:29:19.023Z,48.40
2019-04-14T13:31:47.894Z,49.80
2019-04-14T13:34:16.355Z,48.70
2019-04-14T13:36:44.860Z,49.10
2019-04-14T13:39:13.434Z,48.80
2019-04-14T13:41:42.005Z,50.00
2019-04-14T13:44:11.088Z,50.80
2019-04-14T13:46:39.544Z,50.60
2019-04-14T13:49:08.030Z,52.50
2019-04-14T13:51:37.524Z,50.60
2019-04-14T13:54:06.314Z,48.30
2019-04-14T13:56:34.989Z,48.20
2019-04-14T13:59:03.631Z,49.60
2019-04-14T14:01:32.457Z,49.20
2019-04-14T14:04:00.977Z,49.80
2019-04-14T14:06:32.819Z,49.70
2019-04-14T14:09:01.332Z,50.20
2019-04-14T14:11:32.433Z,50.10
2019-04-14T14:14:11.864Z,47.40
2019-04-14T14:16:48.303Z,46.90
2019-04-14T14:19:27.530Z,48.50
2019-04-14T14:21:57.633Z,47.50
2019-04-14T14:24:36.764Z,49.30
2019-04-14T14:27:06.859Z,47.80
2019-04-14T14:29:35.353Z,48.20
2019-04-14T14:32:05.530Z,49.30
2019-04-14T14:34:34.020Z,48.80
2019-04-14T14:37:02.543Z,50.40
2019-04-14T14:39:31.154Z,50.50
2019-04-14T14:41:59.937Z,50.80
2019-04-14T14:44:30.087Z,50.50
2019-04-14T14:47:00.502Z,50.00
2019-04-14T14:49:39.711Z,49.90
2019-04-14T14:52:10.099Z,49.20
2019-04-14T14:54:38.621Z,49.20
2019-04-14T14:57:07.357Z,50.70
2019-04-14T14:59:36.249Z,49.10
2019-04-14T15:02:04.967Z,50.10
2019-04-14T15:04:33.465Z,50.30
2019-04-14T15:07:01.940Z,48.20
2019-04-14T15:09:30.442Z,48.70
2019-04-14T15:11:58.929Z,48.40
2019-04-14T15:14:27.461Z,49.20
2019-04-14T15:16:55.901Z,48.70
2019-04-14T15:19:25.540Z,48.40
2019-04-14T15:21:54.144Z,48.10
2019-04-14T15:24:22.608Z,47.30
2019-04-14T15:26:51.119Z,48.30
2019-04-14T15:29:19.595Z,47.30
2019-04-14T15:31:48.027Z,48.40
2019-04-14T15:34:16.790Z,48.40
2019-04-14T15:36:45.302Z,48.60
2019-04-14T15:39:13.918Z,49.00
2019-04-14T15:41:43.489Z,50.10
2019-04-14T15:44:11.953Z,47.80
2019-04-14T15:46:40.446Z,47.90
2019-04-14T15:49:08.969Z,47.20
2019-04-14T15:51:37.411Z,47.40
2019-04-14T15:54:05.872Z,48.00
2019-04-14T15:56:45.162Z,48.50
2019-04-14T15:59:32.557Z,48.30
2019-04-14T16:02:16.087Z,48.20
2019-04-14T16:04:46.188Z,48.90
2019-04-14T16:07:22.314Z,49.60
2019-04-14T16:10:10.760Z,49.60
2019-04-14T16:12:43.772Z,49.10
2019-04-14T16:15:30.221Z,48.40
2019-04-14T16:18:00.307Z,49.00
2019-04-14T16:20:30.700Z,49.20
2019-04-14T16:22:59.144Z,48.80
2019-04-14T16:25:38.870Z,48.40
2019-04-14T16:28:08.957Z,48.80
2019-04-14T16:30:41.752Z,48.70
2019-04-14T16:33:11.857Z,48.60
2019-04-14T16:35:41.538Z,48.20
2019-04-14T16:38:10.069Z,47.70
2019-04-14T16:40:38.579Z,48.70
2019-04-14T16:43:07.040Z,49.20
2019-04-14T16:45:38.439Z,49.30
2019-04-14T16:48:10.096Z,49.60
2019-04-14T16:50:38.533Z,48.30
2019-04-14T16:53:23.806Z,49.00
2019-04-14T16:55:55.820Z,49.30
2019-04-14T16:58:25.989Z,49.00
2019-04-14T17:01:08.305Z,49.20
2019-04-14T17:03:36.775Z,49.40
2019-04-14T17:06:05.741Z,50.30
2019-04-14T17:08:34.231Z,50.30
2019-04-14T17:11:02.735Z,50.50
2019-04-14T17:13:33.153Z,50.20
2019-04-14T17:16:09.409Z,50.70
2019-04-14T17:18:45.453Z,50.70
2019-04-14T17:21:24.529Z,50.10
2019-04-14T17:24:10.637Z,50.90
2019-04-14T17:26:35.634Z,50.70
2019-04-14T17:29:17.515Z,51.10
2019-04-14T17:31:48.383Z,51.30
2019-04-14T17:34:27.531Z,51.40
2019-04-14T17:37:06.644Z,50.90
2019-04-14T17:39:39.458Z,50.90
2019-04-14T17:42:15.373Z,50.00
2019-04-14T17:44:48.679Z,50.30
2019-04-14T17:47:18.801Z,51.00
2019-04-14T17:50:05.214Z,51.00
2019-04-14T17:52:35.332Z,52.90
2019-04-14T17:55:17.168Z,55.20
2019-04-14T17:57:52.804Z,56.20
2019-04-14T18:00:26.123Z,56.40
2019-04-14T18:03:02.230Z,57.00
2019-04-14T18:05:47.871Z,57.40
2019-04-14T18:08:34.524Z,57.60
2019-04-14T18:11:07.321Z,58.10
2019-04-14T18:13:37.697Z,58.60
2019-04-14T18:16:08.054Z,58.60
2019-04-14T18:18:41.213Z,58.70
2019-04-14T18:21:11.586Z,58.10
2019-04-14T18:23:40.560Z,58.30
2019-04-14T18:26:10.003Z,58.40
2019-04-14T18:28:40.423Z,58.80
2019-04-14T18:31:22.468Z,59.00
2019-04-14T18:33:58.730Z,59.00
2019-04-14T18:36:38.298Z,59.20
2019-04-14T18:39:13.438Z,59.90
2019-04-14T18:41:52.340Z,60.10
2019-04-14T18:44:25.414Z,60.10
2019-04-14T18:46:58.782Z,60.20
2019-04-14T18:49:28.886Z,60.10
2019-04-14T18:51:59.255Z,60.60
2019-04-14T18:54:29.672Z,61.10
2019-04-14T18:57:00.074Z,61.20
2019-04-14T18:59:30.414Z,62.00
2019-04-14T19:02:00.083Z,61.50
2019-04-14T19:04:28.808Z,61.50
2019-04-14T19:06:57.424Z,61.40
2019-04-14T19:09:26.142Z,61.40
2019-04-14T19:11:59.381Z,60.90
2019-04-14T19:14:29.734Z,61.30
2019-04-14T19:17:03.065Z,61.80
2019-04-14T19:19:33.432Z,61.40
2019-04-14T19:22:01.893Z,59.80
2019-04-14T19:24:30.343Z,59.40
2019-04-14T19:26:58.799Z,59.30
2019-04-14T19:29:27.872Z,60.00
2019-04-14T19:31:56.574Z,60.70
2019-04-14T19:34:25.051Z,59.90
2019-04-14T19:36:53.839Z,60.00
2019-04-14T19:39:22.370Z,59.80
2019-04-14T19:41:50.831Z,59.40
2019-04-14T19:44:19.316Z,59.70
2019-04-14T19:46:48.071Z,59.60
2019-04-14T19:49:16.785Z,60.00
2019-04-14T19:51:45.479Z,60.00
2019-04-14T19:54:13.983Z,60.80
2019-04-14T19:56:42.687Z,60.70
2019-04-14T19:59:11.163Z,61.20
2019-04-14T20:01:39.687Z,61.30
2019-04-14T20:04:08.141Z,61.30
2019-04-14T20:06:57.769Z,61.60
2019-04-14T20:09:26.227Z,61.60
2019-04-14T20:11:55.464Z,61.60
2019-04-14T20:14:24.473Z,61.90
2019-04-14T20:17:06.916Z,62.10
2019-04-14T20:19:43.041Z,61.90
2019-04-14T20:22:13.418Z,61.50
2019-04-14T20:24:49.220Z,61.60
2019-04-14T20:27:22.080Z,62.00
2019-04-14T20:29:52.432Z,62.40
2019-04-14T20:32:22.799Z,61.50
2019-04-14T20:34:51.242Z,61.80
2019-04-14T20:37:19.764Z,61.80
2019-04-14T20:39:48.251Z,61.90
2019-04-14T20:42:16.771Z,62.40
2019-04-14T20:44:45.242Z,62.50
2019-04-14T20:47:13.688Z,62.20
2019-04-14T20:49:42.149Z,62.60
2019-04-14T20:52:10.608Z,62.20
2019-04-14T20:54:39.068Z,62.50
2019-04-14T20:57:07.937Z,62.50
2019-04-14T20:59:36.454Z,63.80
2019-04-14T21:02:22.726Z,64.20
2019-04-14T21:04:55.809Z,64.30
2019-04-14T21:07:42.385Z,64.80
2019-04-14T21:10:18.653Z,64.80
2019-04-14T21:13:01.030Z,64.40
2019-04-14T21:15:31.421Z,64.70
2019-04-14T21:18:07.653Z,65.10
2019-04-14T21:20:37.759Z,65.20
2019-04-14T21:23:08.109Z,64.80
2019-04-14T21:25:38.194Z,65.10
2019-04-14T21:28:20.616Z,65.00
2019-04-14T21:30:53.792Z,65.40
2019-04-14T21:33:24.164Z,65.80
2019-04-14T21:36:00.674Z,65.60
2019-04-14T21:38:36.698Z,65.80
2019-04-14T21:41:06.862Z,66.00
2019-04-14T21:43:35.580Z,66.30
2019-04-14T21:46:04.709Z,66.10
2019-04-14T21:48:33.183Z,66.50
2019-04-14T21:51:01.695Z,66.30
2019-04-14T21:53:30.407Z,66.80
2019-04-14T21:55:58.857Z,66.80
2019-04-14T21:58:37.945Z,66.60
2019-04-14T22:01:36.783Z,66.00
2019-04-14T22:04:12.728Z,65.80
2019-04-14T22:06:51.717Z,65.90
2019-04-14T22:09:24.593Z,66.00
2019-04-14T22:11:53.037Z,66.00
2019-04-14T22:14:21.684Z,66.30
2019-04-14T22:16:50.389Z,66.00
2019-04-14T22:19:19.504Z,66.10
2019-04-14T22:21:48.245Z,66.50
2019-04-14T22:24:16.758Z,66.30
2019-04-14T22:26:45.478Z,66.50
2019-04-14T22:29:13.933Z,66.60
2019-04-14T22:31:42.432Z,67.10
2019-04-14T22:34:11.140Z,67.50
2019-04-14T22:36:39.618Z,67.70
2019-04-14T22:39:09.965Z,67.80
2019-04-14T22:41:38.840Z,67.40
2019-04-14T22:44:07.284Z,67.00
2019-04-14T22:46:35.749Z,67.00
2019-04-14T22:49:04.281Z,67.20
2019-04-14T22:51:32.993Z,67.10
2019-04-14T22:54:01.502Z,67.20
2019-04-14T22:56:39.105Z,66.60
2019-04-14T22:59:00.173Z,66.80
2019-04-14T23:01:32.962Z,67.00
2019-04-14T23:04:19.345Z,66.60
2019-04-14T23:06:58.700Z,67.40
2019-04-14T23:09:31.801Z,67.00
2019-04-14T23:12:16.984Z,66.90
2019-04-14T23:14:52.617Z,67.00
2019-04-14T23:17:31.967Z,67.20
2019-04-14T23:20:18.085Z,67.50
2019-04-14T23:22:51.118Z,68.30
2019-04-14T23:25:19.612Z,68.20
2019-04-14T23:27:48.385Z,68.40
2019-04-14T23:30:17.273Z,69.00
2019-04-14T23:32:45.995Z,69.00
2019-04-14T23:35:14.511Z,69.10
2019-04-14T23:37:42.991Z,69.40
2019-04-14T23:40:13.052Z,69.40
2019-04-14T23:42:41.529Z,69.50
2019-04-14T23:45:10.349Z,69.60
2019-04-14T23:47:39.086Z,69.70
2019-04-14T23:50:08.233Z,70.00
2019-04-14T23:52:37.004Z,69.80
2019-04-14T23:55:06.855Z,70.10
2019-04-14T23:57:35.585Z,69.90
